sensor_id;sensor_type;location;lat;lon;timestamp;P1;durP1;ratioP1;P2;durP2;ratioP2
45041;SDS011;30779;52.096;4.410;2023-02-04T00:01:18;16.27;;;4.30;;
45041;SDS011;30779;52.096;4.410;2023-02-04T00:04:19;29.90;;;7.75;;
45041;SDS011;30779;52.096;4.410;2023-02-04T00:07:20;26.58;;;5.95;;
45041;SDS011;30779;52.096;4.410;2023-02-04T00:10:21;26.95;;;5.13;;
45041;SDS011;30779;52.096;4.410;2023-02-04T00:13:22;22.50;;;6.15;;
45041;SDS011;30779;52.096;4.410;2023-02-04T00:16:23;29.30;;;5.45;;
45041;SDS011;30779;52.096;4.410;2023-02-04T00:19:24;29.85;;;7.07;;
45041;SDS011;30779;52.096;4.410;2023-02-04T00:22:25;30.38;;;5.38;;
45041;SDS011;30779;52.096;4.410;2023-02-04T00:25:27;27.83;;;6.60;;
45041;SDS011;30779;52.096;4.410;2023-02-04T00:28:28;31.63;;;7.38;;
45041;SDS011;30779;52.096;4.410;2023-02-04T00:31:29;25.65;;;5.63;;
45041;SDS011;30779;52.096;4.410;2023-02-04T00:34:30;26.88;;;5.47;;
45041;SDS011;30779;52.096;4.410;2023-02-04T00:37:32;28.05;;;6.05;;
45041;SDS011;30779;52.096;4.410;2023-02-04T00:40:33;26.50;;;5.03;;
45041;SDS011;30779;52.096;4.410;2023-02-04T00:43:34;24.08;;;4.78;;
45041;SDS011;30779;52.096;4.410;2023-02-04T00:46:35;31.80;;;7.63;;
45041;SDS011;30779;52.096;4.410;2023-02-04T00:49:36;18.67;;;5.95;;
45041;SDS011;30779;52.096;4.410;2023-02-04T00:52:37;28.20;;;5.38;;
45041;SDS011;30779;52.096;4.410;2023-02-04T00:55:38;35.38;;;6.68;;
45041;SDS011;30779;52.096;4.410;2023-02-04T00:58:39;20.40;;;4.88;;
45041;SDS011;30779;52.096;4.410;2023-02-04T01:01:40;24.75;;;4.82;;
45041;SDS011;30779;52.096;4.410;2023-02-04T01:04:41;26.05;;;5.47;;
45041;SDS011;30779;52.096;4.410;2023-02-04T01:07:42;26.63;;;6.85;;
45041;SDS011;30779;52.096;4.410;2023-02-04T01:10:43;29.60;;;6.07;;
45041;SDS011;30779;52.096;4.410;2023-02-04T01:13:44;29.40;;;7.28;;
45041;SDS011;30779;52.096;4.410;2023-02-04T01:16:45;31.05;;;5.82;;
45041;SDS011;30779;52.096;4.410;2023-02-04T01:19:46;28.83;;;5.22;;
45041;SDS011;30779;52.096;4.410;2023-02-04T01:22:47;23.38;;;6.03;;
45041;SDS011;30779;52.096;4.410;2023-02-04T01:25:49;26.55;;;5.60;;
45041;SDS011;30779;52.096;4.410;2023-02-04T01:28:50;28.38;;;6.30;;
45041;SDS011;30779;52.096;4.410;2023-02-04T01:31:51;24.10;;;5.43;;
45041;SDS011;30779;52.096;4.410;2023-02-04T01:34:51;25.95;;;5.18;;
45041;SDS011;30779;52.096;4.410;2023-02-04T01:37:52;26.80;;;6.35;;
45041;SDS011;30779;52.096;4.410;2023-02-04T01:40:53;21.45;;;5.53;;
45041;SDS011;30779;52.096;4.410;2023-02-04T01:43:54;26.10;;;6.00;;
45041;SDS011;30779;52.096;4.410;2023-02-04T01:46:55;17.27;;;4.25;;
45041;SDS011;30779;52.096;4.410;2023-02-04T01:49:56;26.50;;;5.35;;
45041;SDS011;30779;52.096;4.410;2023-02-04T01:52:57;32.22;;;5.70;;
45041;SDS011;30779;52.096;4.410;2023-02-04T01:55:59;19.92;;;4.55;;
45041;SDS011;30779;52.096;4.410;2023-02-04T01:59:00;21.92;;;4.45;;
45041;SDS011;30779;52.096;4.410;2023-02-04T02:02:01;17.83;;;3.90;;
45041;SDS011;30779;52.096;4.410;2023-02-04T02:05:02;20.77;;;4.20;;
45041;SDS011;30779;52.096;4.410;2023-02-04T02:08:04;27.00;;;6.07;;
45041;SDS011;30779;52.096;4.410;2023-02-04T02:11:05;23.70;;;4.88;;
45041;SDS011;30779;52.096;4.410;2023-02-04T02:14:06;22.00;;;4.20;;
45041;SDS011;30779;52.096;4.410;2023-02-04T02:17:07;22.10;;;3.85;;
45041;SDS011;30779;52.096;4.410;2023-02-04T02:20:09;24.30;;;4.50;;
45041;SDS011;30779;52.096;4.410;2023-02-04T02:26:24;24.10;;;4.50;;
45041;SDS011;30779;52.096;4.410;2023-02-04T02:29:25;18.88;;;3.55;;
45041;SDS011;30779;52.096;4.410;2023-02-04T02:32:26;18.45;;;4.35;;
45041;SDS011;30779;52.096;4.410;2023-02-04T02:35:27;28.20;;;5.93;;
45041;SDS011;30779;52.096;4.410;2023-02-04T02:38:28;24.80;;;7.60;;
45041;SDS011;30779;52.096;4.410;2023-02-04T02:41:29;30.02;;;8.55;;
45041;SDS011;30779;52.096;4.410;2023-02-04T02:44:31;27.88;;;6.78;;
45041;SDS011;30779;52.096;4.410;2023-02-04T02:47:32;26.23;;;4.88;;
45041;SDS011;30779;52.096;4.410;2023-02-04T02:50:33;22.05;;;5.28;;
45041;SDS011;30779;52.096;4.410;2023-02-04T02:53:34;22.98;;;5.28;;
45041;SDS011;30779;52.096;4.410;2023-02-04T02:56:35;20.95;;;3.83;;
45041;SDS011;30779;52.096;4.410;2023-02-04T02:59:36;23.30;;;4.85;;
45041;SDS011;30779;52.096;4.410;2023-02-04T03:02:37;26.23;;;4.90;;
45041;SDS011;30779;52.096;4.410;2023-02-04T03:05:40;21.55;;;5.18;;
45041;SDS011;30779;52.096;4.410;2023-02-04T03:08:41;27.15;;;6.43;;
45041;SDS011;30779;52.096;4.410;2023-02-04T03:11:43;19.90;;;5.03;;
45041;SDS011;30779;52.096;4.410;2023-02-04T03:14:44;22.05;;;3.90;;
45041;SDS011;30779;52.096;4.410;2023-02-04T03:17:45;28.55;;;6.78;;
45041;SDS011;30779;52.096;4.410;2023-02-04T03:20:47;29.20;;;4.45;;
45041;SDS011;30779;52.096;4.410;2023-02-04T03:23:48;32.03;;;3.88;;
45041;SDS011;30779;52.096;4.410;2023-02-04T03:26:50;27.27;;;5.88;;
45041;SDS011;30779;52.096;4.410;2023-02-04T03:29:51;30.83;;;5.50;;
45041;SDS011;30779;52.096;4.410;2023-02-04T03:32:52;23.83;;;4.93;;
45041;SDS011;30779;52.096;4.410;2023-02-04T03:35:54;29.20;;;5.32;;
45041;SDS011;30779;52.096;4.410;2023-02-04T03:38:55;26.13;;;4.68;;
45041;SDS011;30779;52.096;4.410;2023-02-04T03:41:56;27.02;;;5.72;;
45041;SDS011;30779;52.096;4.410;2023-02-04T03:44:57;32.33;;;5.60;;
45041;SDS011;30779;52.096;4.410;2023-02-04T03:47:58;35.30;;;6.70;;
45041;SDS011;30779;52.096;4.410;2023-02-04T03:50:59;25.92;;;6.35;;
45041;SDS011;30779;52.096;4.410;2023-02-04T03:54:00;31.58;;;5.82;;
45041;SDS011;30779;52.096;4.410;2023-02-04T03:57:01;39.72;;;7.45;;
45041;SDS011;30779;52.096;4.410;2023-02-04T04:00:02;23.48;;;4.72;;
45041;SDS011;30779;52.096;4.410;2023-02-04T04:03:03;23.17;;;5.72;;
45041;SDS011;30779;52.096;4.410;2023-02-04T04:06:04;23.88;;;6.10;;
45041;SDS011;30779;52.096;4.410;2023-02-04T04:09:07;29.63;;;6.50;;
45041;SDS011;30779;52.096;4.410;2023-02-04T04:12:08;26.63;;;5.25;;
45041;SDS011;30779;52.096;4.410;2023-02-04T04:15:09;21.70;;;4.60;;
45041;SDS011;30779;52.096;4.410;2023-02-04T04:18:10;27.65;;;6.43;;
45041;SDS011;30779;52.096;4.410;2023-02-04T04:21:11;26.88;;;6.13;;
45041;SDS011;30779;52.096;4.410;2023-02-04T04:24:12;30.27;;;5.03;;
45041;SDS011;30779;52.096;4.410;2023-02-04T04:27:13;22.73;;;5.53;;
45041;SDS011;30779;52.096;4.410;2023-02-04T04:30:14;25.90;;;6.28;;
45041;SDS011;30779;52.096;4.410;2023-02-04T04:33:16;34.25;;;6.05;;
45041;SDS011;30779;52.096;4.410;2023-02-04T04:36:17;22.92;;;5.97;;
45041;SDS011;30779;52.096;4.410;2023-02-04T04:39:18;34.72;;;7.20;;
45041;SDS011;30779;52.096;4.410;2023-02-04T04:42:19;30.92;;;5.78;;
45041;SDS011;30779;52.096;4.410;2023-02-04T04:45:20;26.13;;;5.80;;
45041;SDS011;30779;52.096;4.410;2023-02-04T04:48:21;32.58;;;6.03;;
45041;SDS011;30779;52.096;4.410;2023-02-04T04:51:22;33.58;;;7.15;;
45041;SDS011;30779;52.096;4.410;2023-02-04T04:54:23;26.52;;;5.65;;
45041;SDS011;30779;52.096;4.410;2023-02-04T04:57:24;25.85;;;6.50;;
45041;SDS011;30779;52.096;4.410;2023-02-04T05:00:25;21.48;;;5.88;;
45041;SDS011;30779;52.096;4.410;2023-02-04T05:03:26;39.53;;;7.47;;
45041;SDS011;30779;52.096;4.410;2023-02-04T05:06:27;23.77;;;6.18;;
45041;SDS011;30779;52.096;4.410;2023-02-04T05:09:29;39.85;;;7.47;;
45041;SDS011;30779;52.096;4.410;2023-02-04T05:12:30;26.33;;;6.43;;
45041;SDS011;30779;52.096;4.410;2023-02-04T05:15:31;30.80;;;6.63;;
45041;SDS011;30779;52.096;4.410;2023-02-04T05:18:32;33.90;;;6.97;;
45041;SDS011;30779;52.096;4.410;2023-02-04T05:21:33;31.67;;;6.97;;
45041;SDS011;30779;52.096;4.410;2023-02-04T05:24:34;38.45;;;7.28;;
45041;SDS011;30779;52.096;4.410;2023-02-04T05:27:35;32.45;;;6.10;;
45041;SDS011;30779;52.096;4.410;2023-02-04T05:30:36;28.67;;;5.43;;
45041;SDS011;30779;52.096;4.410;2023-02-04T05:33:37;36.78;;;6.05;;
45041;SDS011;30779;52.096;4.410;2023-02-04T05:36:38;31.35;;;5.22;;
45041;SDS011;30779;52.096;4.410;2023-02-04T05:39:39;24.63;;;5.97;;
45041;SDS011;30779;52.096;4.410;2023-02-04T05:42:40;30.88;;;6.68;;
45041;SDS011;30779;52.096;4.410;2023-02-04T05:45:41;30.17;;;6.30;;
45041;SDS011;30779;52.096;4.410;2023-02-04T05:48:42;27.05;;;6.85;;
45041;SDS011;30779;52.096;4.410;2023-02-04T05:51:43;29.20;;;6.63;;
45041;SDS011;30779;52.096;4.410;2023-02-04T05:54:44;35.22;;;7.03;;
45041;SDS011;30779;52.096;4.410;2023-02-04T05:57:45;37.90;;;7.18;;
45041;SDS011;30779;52.096;4.410;2023-02-04T06:00:46;30.92;;;7.90;;
45041;SDS011;30779;52.096;4.410;2023-02-04T06:03:47;35.80;;;7.28;;
45041;SDS011;30779;52.096;4.410;2023-02-04T06:06:48;29.23;;;6.78;;
45041;SDS011;30779;52.096;4.410;2023-02-04T06:09:49;28.05;;;6.85;;
45041;SDS011;30779;52.096;4.410;2023-02-04T06:12:50;29.60;;;6.05;;
45041;SDS011;30779;52.096;4.410;2023-02-04T06:15:51;21.75;;;5.38;;
45041;SDS011;30779;52.096;4.410;2023-02-04T06:18:52;29.08;;;6.63;;
45041;SDS011;30779;52.096;4.410;2023-02-04T06:21:53;24.65;;;6.18;;
45041;SDS011;30779;52.096;4.410;2023-02-04T06:24:54;29.10;;;6.53;;
45041;SDS011;30779;52.096;4.410;2023-02-04T06:27:55;30.65;;;6.43;;
45041;SDS011;30779;52.096;4.410;2023-02-04T06:30:56;28.38;;;6.03;;
45041;SDS011;30779;52.096;4.410;2023-02-04T06:33:57;32.45;;;6.53;;
45041;SDS011;30779;52.096;4.410;2023-02-04T06:36:58;35.20;;;6.95;;
45041;SDS011;30779;52.096;4.410;2023-02-04T06:39:59;36.28;;;8.35;;
45041;SDS011;30779;52.096;4.410;2023-02-04T06:43:00;29.42;;;5.90;;
45041;SDS011;30779;52.096;4.410;2023-02-04T06:46:01;29.15;;;6.85;;
45041;SDS011;30779;52.096;4.410;2023-02-04T06:49:02;28.75;;;6.97;;
45041;SDS011;30779;52.096;4.410;2023-02-04T06:52:03;28.77;;;6.20;;
45041;SDS011;30779;52.096;4.410;2023-02-04T06:55:04;35.53;;;7.93;;
45041;SDS011;30779;52.096;4.410;2023-02-04T06:58:05;36.90;;;7.15;;
45041;SDS011;30779;52.096;4.410;2023-02-04T07:01:07;30.45;;;8.25;;
45041;SDS011;30779;52.096;4.410;2023-02-04T07:04:08;31.35;;;6.65;;
45041;SDS011;30779;52.096;4.410;2023-02-04T07:07:09;33.47;;;7.97;;
45041;SDS011;30779;52.096;4.410;2023-02-04T07:10:10;35.50;;;8.10;;
45041;SDS011;30779;52.096;4.410;2023-02-04T07:13:11;28.75;;;8.02;;
45041;SDS011;30779;52.096;4.410;2023-02-04T07:16:12;40.70;;;9.13;;
45041;SDS011;30779;52.096;4.410;2023-02-04T07:19:13;40.10;;;9.32;;
45041;SDS011;30779;52.096;4.410;2023-02-04T07:22:14;34.72;;;8.43;;
45041;SDS011;30779;52.096;4.410;2023-02-04T07:25:15;36.30;;;8.02;;
45041;SDS011;30779;52.096;4.410;2023-02-04T07:28:16;26.02;;;7.28;;
45041;SDS011;30779;52.096;4.410;2023-02-04T07:31:17;34.90;;;7.03;;
45041;SDS011;30779;52.096;4.410;2023-02-04T07:34:19;26.63;;;6.00;;
45041;SDS011;30779;52.096;4.410;2023-02-04T07:37:20;33.53;;;6.45;;
45041;SDS011;30779;52.096;4.410;2023-02-04T07:40:22;32.88;;;7.10;;
45041;SDS011;30779;52.096;4.410;2023-02-04T07:43:23;31.33;;;8.43;;
45041;SDS011;30779;52.096;4.410;2023-02-04T07:46:24;31.48;;;7.85;;
45041;SDS011;30779;52.096;4.410;2023-02-04T07:49:25;34.55;;;8.77;;
45041;SDS011;30779;52.096;4.410;2023-02-04T07:52:27;36.78;;;8.50;;
45041;SDS011;30779;52.096;4.410;2023-02-04T07:55:28;34.78;;;9.60;;
45041;SDS011;30779;52.096;4.410;2023-02-04T07:58:29;28.83;;;8.40;;
45041;SDS011;30779;52.096;4.410;2023-02-04T08:01:30;37.13;;;10.77;;
45041;SDS011;30779;52.096;4.410;2023-02-04T08:04:32;37.92;;;10.13;;
45041;SDS011;30779;52.096;4.410;2023-02-04T08:07:33;43.17;;;10.60;;
45041;SDS011;30779;52.096;4.410;2023-02-04T08:10:33;35.63;;;10.88;;
45041;SDS011;30779;52.096;4.410;2023-02-04T08:13:34;37.63;;;10.52;;
45041;SDS011;30779;52.096;4.410;2023-02-04T08:16:35;38.83;;;9.95;;
45041;SDS011;30779;52.096;4.410;2023-02-04T08:19:36;40.38;;;11.82;;
45041;SDS011;30779;52.096;4.410;2023-02-04T08:22:38;37.97;;;10.73;;
45041;SDS011;30779;52.096;4.410;2023-02-04T08:25:42;43.13;;;11.13;;
45041;SDS011;30779;52.096;4.410;2023-02-04T08:28:44;41.58;;;12.00;;
45041;SDS011;30779;52.096;4.410;2023-02-04T08:31:45;35.55;;;10.63;;
45041;SDS011;30779;52.096;4.410;2023-02-04T08:34:46;37.63;;;9.52;;
45041;SDS011;30779;52.096;4.410;2023-02-04T08:37:47;43.85;;;11.45;;
45041;SDS011;30779;52.096;4.410;2023-02-04T08:40:48;37.33;;;11.90;;
45041;SDS011;30779;52.096;4.410;2023-02-04T08:43:49;50.65;;;12.82;;
45041;SDS011;30779;52.096;4.410;2023-02-04T08:46:50;43.13;;;11.65;;
45041;SDS011;30779;52.096;4.410;2023-02-04T08:49:51;39.28;;;10.80;;
45041;SDS011;30779;52.096;4.410;2023-02-04T08:52:52;43.63;;;11.93;;
45041;SDS011;30779;52.096;4.410;2023-02-04T08:55:53;41.17;;;11.77;;
45041;SDS011;30779;52.096;4.410;2023-02-04T08:58:54;37.03;;;10.88;;
45041;SDS011;30779;52.096;4.410;2023-02-04T09:01:56;136.65;;;45.33;;
45041;SDS011;30779;52.096;4.410;2023-02-04T09:04:58;35.17;;;11.05;;
45041;SDS011;30779;52.096;4.410;2023-02-04T09:07:59;35.30;;;9.70;;
45041;SDS011;30779;52.096;4.410;2023-02-04T09:11:00;38.55;;;10.68;;
45041;SDS011;30779;52.096;4.410;2023-02-04T09:14:01;35.33;;;8.90;;
45041;SDS011;30779;52.096;4.410;2023-02-04T09:17:02;36.08;;;9.65;;
45041;SDS011;30779;52.096;4.410;2023-02-04T09:20:04;32.00;;;9.43;;
45041;SDS011;30779;52.096;4.410;2023-02-04T09:23:06;28.58;;;9.07;;
45041;SDS011;30779;52.096;4.410;2023-02-04T09:26:08;38.03;;;9.15;;
45041;SDS011;30779;52.096;4.410;2023-02-04T09:29:09;30.45;;;7.57;;
45041;SDS011;30779;52.096;4.410;2023-02-04T09:32:10;26.40;;;7.28;;
45041;SDS011;30779;52.096;4.410;2023-02-04T09:35:11;33.13;;;9.15;;
45041;SDS011;30779;52.096;4.410;2023-02-04T09:38:12;26.33;;;6.93;;
45041;SDS011;30779;52.096;4.410;2023-02-04T09:41:14;24.20;;;5.55;;
45041;SDS011;30779;52.096;4.410;2023-02-04T09:44:16;21.88;;;6.03;;
45041;SDS011;30779;52.096;4.410;2023-02-04T09:47:20;28.85;;;6.45;;
45041;SDS011;30779;52.096;4.410;2023-02-04T09:50:22;23.95;;;6.07;;
45041;SDS011;30779;52.096;4.410;2023-02-04T09:53:25;25.02;;;6.40;;
45041;SDS011;30779;52.096;4.410;2023-02-04T09:56:26;22.85;;;5.93;;
45041;SDS011;30779;52.096;4.410;2023-02-04T09:59:27;25.02;;;7.50;;
45041;SDS011;30779;52.096;4.410;2023-02-04T10:02:28;16.48;;;5.18;;
45041;SDS011;30779;52.096;4.410;2023-02-04T10:05:30;19.35;;;5.50;;
45041;SDS011;30779;52.096;4.410;2023-02-04T10:08:31;18.30;;;5.25;;
45041;SDS011;30779;52.096;4.410;2023-02-04T10:11:35;17.65;;;6.05;;
45041;SDS011;30779;52.096;4.410;2023-02-04T10:14:37;19.33;;;6.22;;
45041;SDS011;30779;52.096;4.410;2023-02-04T10:17:39;23.42;;;6.20;;
45041;SDS011;30779;52.096;4.410;2023-02-04T10:20:40;20.23;;;6.15;;
45041;SDS011;30779;52.096;4.410;2023-02-04T10:23:41;17.00;;;6.80;;
45041;SDS011;30779;52.096;4.410;2023-02-04T10:26:43;23.17;;;6.60;;
45041;SDS011;30779;52.096;4.410;2023-02-04T10:29:54;20.17;;;6.18;;
45041;SDS011;30779;52.096;4.410;2023-02-04T10:32:56;32.25;;;7.50;;
45041;SDS011;30779;52.096;4.410;2023-02-04T10:35:57;27.67;;;6.38;;
45041;SDS011;30779;52.096;4.410;2023-02-04T10:38:59;19.00;;;6.13;;
45041;SDS011;30779;52.096;4.410;2023-02-04T10:42:00;15.40;;;4.55;;
45041;SDS011;30779;52.096;4.410;2023-02-04T10:45:01;19.90;;;5.60;;
45041;SDS011;30779;52.096;4.410;2023-02-04T10:48:02;19.58;;;4.57;;
45041;SDS011;30779;52.096;4.410;2023-02-04T10:51:03;17.00;;;4.45;;
45041;SDS011;30779;52.096;4.410;2023-02-04T10:54:06;17.90;;;3.70;;
45041;SDS011;30779;52.096;4.410;2023-02-04T10:57:27;11.23;;;3.67;;
45041;SDS011;30779;52.096;4.410;2023-02-04T11:00:28;12.45;;;3.20;;
45041;SDS011;30779;52.096;4.410;2023-02-04T11:03:30;17.33;;;3.72;;
45041;SDS011;30779;52.096;4.410;2023-02-04T11:06:31;15.90;;;3.45;;
45041;SDS011;30779;52.096;4.410;2023-02-04T11:09:32;12.13;;;2.75;;
45041;SDS011;30779;52.096;4.410;2023-02-04T11:15:47;16.08;;;4.05;;
45041;SDS011;30779;52.096;4.410;2023-02-04T11:21:49;18.42;;;3.67;;
45041;SDS011;30779;52.096;4.410;2023-02-04T11:24:50;18.65;;;3.20;;
45041;SDS011;30779;52.096;4.410;2023-02-04T11:27:51;16.33;;;4.32;;
45041;SDS011;30779;52.096;4.410;2023-02-04T11:31:02;14.05;;;3.40;;
45041;SDS011;30779;52.096;4.410;2023-02-04T11:40:28;17.45;;;5.00;;
45041;SDS011;30779;52.096;4.410;2023-02-04T11:43:35;17.30;;;3.63;;
45041;SDS011;30779;52.096;4.410;2023-02-04T11:46:36;17.20;;;3.58;;
45041;SDS011;30779;52.096;4.410;2023-02-04T11:49:37;16.52;;;4.28;;
45041;SDS011;30779;52.096;4.410;2023-02-04T11:52:38;10.55;;;3.92;;
45041;SDS011;30779;52.096;4.410;2023-02-04T11:55:44;17.33;;;3.97;;
45041;SDS011;30779;52.096;4.410;2023-02-04T11:58:45;12.95;;;3.72;;
45041;SDS011;30779;52.096;4.410;2023-02-04T12:01:47;14.55;;;3.83;;
45041;SDS011;30779;52.096;4.410;2023-02-04T12:04:52;14.73;;;4.00;;
45041;SDS011;30779;52.096;4.410;2023-02-04T12:07:54;12.18;;;4.03;;
45041;SDS011;30779;52.096;4.410;2023-02-04T12:10:59;21.65;;;10.68;;
45041;SDS011;30779;52.096;4.410;2023-02-04T12:14:08;14.20;;;3.55;;
45041;SDS011;30779;52.096;4.410;2023-02-04T12:17:16;17.10;;;5.05;;
45041;SDS011;30779;52.096;4.410;2023-02-04T12:20:17;17.48;;;4.40;;
45041;SDS011;30779;52.096;4.410;2023-02-04T12:23:18;17.45;;;6.65;;
45041;SDS011;30779;52.096;4.410;2023-02-04T12:26:19;12.88;;;5.35;;
45041;SDS011;30779;52.096;4.410;2023-02-04T12:29:20;27.55;;;14.75;;
45041;SDS011;30779;52.096;4.410;2023-02-04T12:32:21;48.05;;;26.08;;
45041;SDS011;30779;52.096;4.410;2023-02-04T12:35:22;17.10;;;6.85;;
45041;SDS011;30779;52.096;4.410;2023-02-04T12:38:23;16.00;;;5.80;;
45041;SDS011;30779;52.096;4.410;2023-02-04T12:41:26;14.73;;;4.68;;
45041;SDS011;30779;52.096;4.410;2023-02-04T12:44:27;7.93;;;2.90;;
45041;SDS011;30779;52.096;4.410;2023-02-04T12:47:28;20.50;;;7.78;;
45041;SDS011;30779;52.096;4.410;2023-02-04T12:50:29;10.05;;;4.90;;
45041;SDS011;30779;52.096;4.410;2023-02-04T12:53:30;15.25;;;4.28;;
45041;SDS011;30779;52.096;4.410;2023-02-04T12:56:31;18.67;;;7.38;;
45041;SDS011;30779;52.096;4.410;2023-02-04T12:59:32;14.02;;;4.18;;
45041;SDS011;30779;52.096;4.410;2023-02-04T13:02:33;19.00;;;5.63;;
45041;SDS011;30779;52.096;4.410;2023-02-04T13:05:34;15.25;;;4.70;;
45041;SDS011;30779;52.096;4.410;2023-02-04T13:08:35;13.70;;;5.03;;
45041;SDS011;30779;52.096;4.410;2023-02-04T13:11:36;21.60;;;8.60;;
45041;SDS011;30779;52.096;4.410;2023-02-04T13:14:38;15.02;;;4.95;;
45041;SDS011;30779;52.096;4.410;2023-02-04T13:17:39;11.80;;;5.90;;
45041;SDS011;30779;52.096;4.410;2023-02-04T13:20:40;17.60;;;6.13;;
45041;SDS011;30779;52.096;4.410;2023-02-04T13:23:41;11.98;;;4.47;;
45041;SDS011;30779;52.096;4.410;2023-02-04T13:26:42;15.60;;;5.97;;
45041;SDS011;30779;52.096;4.410;2023-02-04T13:29:43;34.20;;;19.00;;
45041;SDS011;30779;52.096;4.410;2023-02-04T13:32:44;17.20;;;4.25;;
45041;SDS011;30779;52.096;4.410;2023-02-04T13:35:45;33.90;;;17.95;;
45041;SDS011;30779;52.096;4.410;2023-02-04T13:38:46;17.10;;;6.57;;
45041;SDS011;30779;52.096;4.410;2023-02-04T13:41:47;23.48;;;9.75;;
45041;SDS011;30779;52.096;4.410;2023-02-04T13:44:48;32.55;;;18.77;;
45041;SDS011;30779;52.096;4.410;2023-02-04T13:47:49;15.68;;;6.40;;
45041;SDS011;30779;52.096;4.410;2023-02-04T13:50:51;19.20;;;6.60;;
45041;SDS011;30779;52.096;4.410;2023-02-04T13:53:52;31.83;;;8.82;;
45041;SDS011;30779;52.096;4.410;2023-02-04T13:56:53;16.73;;;6.55;;
45041;SDS011;30779;52.096;4.410;2023-02-04T13:59:54;18.45;;;6.47;;
45041;SDS011;30779;52.096;4.410;2023-02-04T14:02:55;19.15;;;7.47;;
45041;SDS011;30779;52.096;4.410;2023-02-04T14:05:56;24.30;;;7.60;;
45041;SDS011;30779;52.096;4.410;2023-02-04T14:08:58;23.92;;;7.00;;
45041;SDS011;30779;52.096;4.410;2023-02-04T14:11:59;17.17;;;8.02;;
45041;SDS011;30779;52.096;4.410;2023-02-04T14:15:00;21.15;;;6.60;;
45041;SDS011;30779;52.096;4.410;2023-02-04T14:18:01;19.92;;;7.15;;
45041;SDS011;30779;52.096;4.410;2023-02-04T14:21:02;21.35;;;8.15;;
45041;SDS011;30779;52.096;4.410;2023-02-04T14:24:03;20.70;;;7.28;;
45041;SDS011;30779;52.096;4.410;2023-02-04T14:27:04;15.95;;;7.25;;
45041;SDS011;30779;52.096;4.410;2023-02-04T14:30:09;15.07;;;8.50;;
45041;SDS011;30779;52.096;4.410;2023-02-04T14:33:12;20.75;;;6.78;;
45041;SDS011;30779;52.096;4.410;2023-02-04T14:36:14;21.25;;;7.20;;
45041;SDS011;30779;52.096;4.410;2023-02-04T14:39:15;15.40;;;6.47;;
45041;SDS011;30779;52.096;4.410;2023-02-04T14:42:16;14.35;;;7.22;;
45041;SDS011;30779;52.096;4.410;2023-02-04T14:45:17;18.55;;;6.40;;
45041;SDS011;30779;52.096;4.410;2023-02-04T14:48:19;16.95;;;7.30;;
45041;SDS011;30779;52.096;4.410;2023-02-04T14:51:20;14.00;;;7.00;;
45041;SDS011;30779;52.096;4.410;2023-02-04T14:54:21;14.20;;;8.43;;
45041;SDS011;30779;52.096;4.410;2023-02-04T14:57:22;16.42;;;7.88;;
45041;SDS011;30779;52.096;4.410;2023-02-04T15:00:23;14.15;;;8.68;;
45041;SDS011;30779;52.096;4.410;2023-02-04T15:03:24;42.33;;;27.42;;
45041;SDS011;30779;52.096;4.410;2023-02-04T15:06:26;18.77;;;11.18;;
45041;SDS011;30779;52.096;4.410;2023-02-04T15:09:27;27.42;;;16.63;;
45041;SDS011;30779;52.096;4.410;2023-02-04T15:12:28;15.02;;;9.80;;
45041;SDS011;30779;52.096;4.410;2023-02-04T15:15:29;17.70;;;10.65;;
45041;SDS011;30779;52.096;4.410;2023-02-04T15:18:30;18.00;;;12.23;;
45041;SDS011;30779;52.096;4.410;2023-02-04T15:21:31;18.42;;;9.70;;
45041;SDS011;30779;52.096;4.410;2023-02-04T15:24:32;23.42;;;14.63;;
45041;SDS011;30779;52.096;4.410;2023-02-04T15:27:33;19.40;;;11.30;;
45041;SDS011;30779;52.096;4.410;2023-02-04T15:30:34;18.15;;;11.63;;
45041;SDS011;30779;52.096;4.410;2023-02-04T15:33:35;21.40;;;12.88;;
45041;SDS011;30779;52.096;4.410;2023-02-04T15:36:36;19.70;;;12.35;;
45041;SDS011;30779;52.096;4.410;2023-02-04T15:39:37;17.08;;;11.68;;
45041;SDS011;30779;52.096;4.410;2023-02-04T15:42:39;20.15;;;13.63;;
45041;SDS011;30779;52.096;4.410;2023-02-04T15:45:40;21.10;;;13.50;;
45041;SDS011;30779;52.096;4.410;2023-02-04T15:48:42;28.88;;;18.23;;
45041;SDS011;30779;52.096;4.410;2023-02-04T15:51:43;38.30;;;23.88;;
45041;SDS011;30779;52.096;4.410;2023-02-04T15:54:44;39.35;;;26.00;;
45041;SDS011;30779;52.096;4.410;2023-02-04T15:57:45;34.05;;;23.30;;
45041;SDS011;30779;52.096;4.410;2023-02-04T16:00:46;23.25;;;14.80;;
45041;SDS011;30779;52.096;4.410;2023-02-04T16:03:47;19.48;;;12.20;;
45041;SDS011;30779;52.096;4.410;2023-02-04T16:06:50;21.48;;;13.63;;
45041;SDS011;30779;52.096;4.410;2023-02-04T16:09:51;22.15;;;12.85;;
45041;SDS011;30779;52.096;4.410;2023-02-04T16:12:52;24.25;;;13.57;;
45041;SDS011;30779;52.096;4.410;2023-02-04T16:18:56;25.95;;;14.02;;
45041;SDS011;30779;52.096;4.410;2023-02-04T16:21:57;23.05;;;13.75;;
45041;SDS011;30779;52.096;4.410;2023-02-04T16:24:58;25.02;;;13.68;;
45041;SDS011;30779;52.096;4.410;2023-02-04T16:27:59;23.63;;;13.93;;
45041;SDS011;30779;52.096;4.410;2023-02-04T16:31:00;29.85;;;17.95;;
45041;SDS011;30779;52.096;4.410;2023-02-04T16:34:01;25.27;;;16.00;;
45041;SDS011;30779;52.096;4.410;2023-02-04T16:37:02;28.73;;;16.20;;
45041;SDS011;30779;52.096;4.410;2023-02-04T16:40:04;27.38;;;16.90;;
45041;SDS011;30779;52.096;4.410;2023-02-04T16:43:05;25.98;;;16.27;;
45041;SDS011;30779;52.096;4.410;2023-02-04T16:46:06;28.55;;;16.40;;
45041;SDS011;30779;52.096;4.410;2023-02-04T16:49:07;27.42;;;16.35;;
45041;SDS011;30779;52.096;4.410;2023-02-04T16:52:09;25.83;;;15.77;;
45041;SDS011;30779;52.096;4.410;2023-02-04T16:55:10;25.40;;;14.93;;
45041;SDS011;30779;52.096;4.410;2023-02-04T16:58:11;24.95;;;16.02;;
45041;SDS011;30779;52.096;4.410;2023-02-04T17:01:12;24.52;;;15.07;;
45041;SDS011;30779;52.096;4.410;2023-02-04T17:04:16;27.80;;;14.77;;
45041;SDS011;30779;52.096;4.410;2023-02-04T17:07:19;29.05;;;17.02;;
45041;SDS011;30779;52.096;4.410;2023-02-04T17:10:20;29.20;;;16.02;;
45041;SDS011;30779;52.096;4.410;2023-02-04T17:13:41;26.25;;;16.48;;
45041;SDS011;30779;52.096;4.410;2023-02-04T17:16:43;30.20;;;18.10;;
45041;SDS011;30779;52.096;4.410;2023-02-04T17:19:44;37.55;;;19.23;;
45041;SDS011;30779;52.096;4.410;2023-02-04T17:22:45;27.15;;;18.10;;
45041;SDS011;30779;52.096;4.410;2023-02-04T17:25:46;20.48;;;13.57;;
45041;SDS011;30779;52.096;4.410;2023-02-04T17:28:47;25.52;;;13.25;;
45041;SDS011;30779;52.096;4.410;2023-02-04T17:31:49;25.23;;;14.00;;
45041;SDS011;30779;52.096;4.410;2023-02-04T17:34:51;26.85;;;14.75;;
45041;SDS011;30779;52.096;4.410;2023-02-04T17:37:54;24.00;;;13.07;;
45041;SDS011;30779;52.096;4.410;2023-02-04T17:40:55;30.92;;;15.35;;
45041;SDS011;30779;52.096;4.410;2023-02-04T17:43:56;24.90;;;13.05;;
45041;SDS011;30779;52.096;4.410;2023-02-04T17:46:58;33.80;;;16.05;;
45041;SDS011;30779;52.096;4.410;2023-02-04T17:49:59;23.73;;;11.77;;
45041;SDS011;30779;52.096;4.410;2023-02-04T17:53:00;24.90;;;11.73;;
45041;SDS011;30779;52.096;4.410;2023-02-04T17:56:01;23.73;;;11.43;;
45041;SDS011;30779;52.096;4.410;2023-02-04T17:59:04;23.63;;;12.45;;
45041;SDS011;30779;52.096;4.410;2023-02-04T18:02:18;20.85;;;12.80;;
45041;SDS011;30779;52.096;4.410;2023-02-04T18:05:24;21.13;;;11.73;;
45041;SDS011;30779;52.096;4.410;2023-02-04T18:08:31;23.52;;;11.60;;
45041;SDS011;30779;52.096;4.410;2023-02-04T18:11:35;21.25;;;11.32;;